sensor_id;sensor_type;location;lat;lon;timestamp;P1;durP1;ratioP1;P2;durP2;ratioP2
36233;SDS011;43467;50.890;5.982;2023-06-26T00:00:25;6.65;;;5.30;;
36233;SDS011;43467;50.890;5.982;2023-06-26T00:02:51;7.40;;;5.70;;
36233;SDS011;43467;50.890;5.982;2023-06-26T00:05:16;7.45;;;5.60;;
36233;SDS011;43467;50.890;5.982;2023-06-26T00:07:42;6.50;;;5.80;;
36233;SDS011;43467;50.890;5.982;2023-06-26T00:10:07;6.93;;;5.60;;
36233;SDS011;43467;50.890;5.982;2023-06-26T00:12:33;7.10;;;4.93;;
36233;SDS011;43467;50.890;5.982;2023-06-26T00:14:58;6.95;;;5.00;;
36233;SDS011;43467;50.890;5.982;2023-06-26T00:17:24;9.23;;;5.53;;
36233;SDS011;43467;50.890;5.982;2023-06-26T00:19:50;7.97;;;5.00;;
36233;SDS011;43467;50.890;5.982;2023-06-26T00:22:15;6.45;;;5.22;;
36233;SDS011;43467;50.890;5.982;2023-06-26T00:24:41;7.82;;;5.40;;
36233;SDS011;43467;50.890;5.982;2023-06-26T00:27:06;7.32;;;5.22;;
36233;SDS011;43467;50.890;5.982;2023-06-26T00:29:32;9.95;;;5.35;;
36233;SDS011;43467;50.890;5.982;2023-06-26T00:31:57;6.90;;;5.50;;
36233;SDS011;43467;50.890;5.982;2023-06-26T00:34:22;8.25;;;5.38;;
36233;SDS011;43467;50.890;5.982;2023-06-26T00:36:48;6.97;;;5.07;;
36233;SDS011;43467;50.890;5.982;2023-06-26T00:39:13;5.50;;;4.82;;
36233;SDS011;43467;50.890;5.982;2023-06-26T00:41:39;7.03;;;5.43;;
36233;SDS011;43467;50.890;5.982;2023-06-26T00:44:05;6.57;;;5.60;;
36233;SDS011;43467;50.890;5.982;2023-06-26T00:46:30;6.18;;;5.53;;
36233;SDS011;43467;50.890;5.982;2023-06-26T00:48:56;6.18;;;5.25;;
36233;SDS011;43467;50.890;5.982;2023-06-26T00:51:24;5.85;;;5.25;;
36233;SDS011;43467;50.890;5.982;2023-06-26T00:53:51;6.72;;;5.13;;
36233;SDS011;43467;50.890;5.982;2023-06-26T00:56:17;7.10;;;5.60;;
36233;SDS011;43467;50.890;5.982;2023-06-26T00:58:44;7.93;;;5.38;;
36233;SDS011;43467;50.890;5.982;2023-06-26T01:01:10;7.07;;;5.55;;
36233;SDS011;43467;50.890;5.982;2023-06-26T01:03:40;7.63;;;5.97;;
36233;SDS011;43467;50.890;5.982;2023-06-26T01:06:06;6.35;;;5.55;;
36233;SDS011;43467;50.890;5.982;2023-06-26T01:08:36;8.00;;;5.10;;
36233;SDS011;43467;50.890;5.982;2023-06-26T01:11:02;6.13;;;5.22;;
36233;SDS011;43467;50.890;5.982;2023-06-26T01:13:28;7.07;;;5.78;;
36233;SDS011;43467;50.890;5.982;2023-06-26T01:15:55;6.90;;;5.15;;
36233;SDS011;43467;50.890;5.982;2023-06-26T01:18:21;8.40;;;5.50;;
36233;SDS011;43467;50.890;5.982;2023-06-26T01:20:46;6.70;;;5.78;;
36233;SDS011;43467;50.890;5.982;2023-06-26T01:28:32;7.20;;;5.70;;
36233;SDS011;43467;50.890;5.982;2023-06-26T01:30:59;7.35;;;5.82;;
36233;SDS011;43467;50.890;5.982;2023-06-26T01:33:25;8.98;;;5.63;;
36233;SDS011;43467;50.890;5.982;2023-06-26T01:35:52;8.73;;;5.97;;
36233;SDS011;43467;50.890;5.982;2023-06-26T01:38:20;9.00;;;6.13;;
36233;SDS011;43467;50.890;5.982;2023-06-26T01:40:48;8.15;;;5.93;;
36233;SDS011;43467;50.890;5.982;2023-06-26T01:46:25;7.35;;;5.57;;
36233;SDS011;43467;50.890;5.982;2023-06-26T01:48:59;6.32;;;5.65;;
36233;SDS011;43467;50.890;5.982;2023-06-26T01:51:27;7.28;;;5.55;;
36233;SDS011;43467;50.890;5.982;2023-06-26T01:53:56;8.55;;;6.10;;
36233;SDS011;43467;50.890;5.982;2023-06-26T01:56:24;7.53;;;5.95;;
36233;SDS011;43467;50.890;5.982;2023-06-26T01:58:50;8.05;;;5.68;;
36233;SDS011;43467;50.890;5.982;2023-06-26T02:01:20;8.15;;;5.65;;
36233;SDS011;43467;50.890;5.982;2023-06-26T02:03:46;7.20;;;5.25;;
36233;SDS011;43467;50.890;5.982;2023-06-26T02:06:12;10.15;;;6.10;;
36233;SDS011;43467;50.890;5.982;2023-06-26T02:08:38;12.15;;;5.82;;
36233;SDS011;43467;50.890;5.982;2023-06-26T02:11:03;8.73;;;5.82;;
36233;SDS011;43467;50.890;5.982;2023-06-26T02:13:28;11.13;;;6.53;;
36233;SDS011;43467;50.890;5.982;2023-06-26T02:15:54;11.18;;;5.43;;
36233;SDS011;43467;50.890;5.982;2023-06-26T02:18:19;7.38;;;4.95;;
36233;SDS011;43467;50.890;5.982;2023-06-26T02:20:47;6.68;;;5.70;;
36233;SDS011;43467;50.890;5.982;2023-06-26T02:23:13;6.07;;;5.25;;
36233;SDS011;43467;50.890;5.982;2023-06-26T02:25:38;8.68;;;5.75;;
36233;SDS011;43467;50.890;5.982;2023-06-26T02:28:03;8.70;;;5.75;;
36233;SDS011;43467;50.890;5.982;2023-06-26T02:30:29;6.97;;;5.15;;
36233;SDS011;43467;50.890;5.982;2023-06-26T02:32:54;7.93;;;5.85;;
36233;SDS011;43467;50.890;5.982;2023-06-26T02:35:19;10.13;;;6.28;;
36233;SDS011;43467;50.890;5.982;2023-06-26T02:37:45;9.10;;;6.18;;
36233;SDS011;43467;50.890;5.982;2023-06-26T02:40:10;8.25;;;5.85;;
36233;SDS011;43467;50.890;5.982;2023-06-26T02:45:57;9.70;;;6.63;;
36233;SDS011;43467;50.890;5.982;2023-06-26T02:48:23;9.90;;;6.90;;
36233;SDS011;43467;50.890;5.982;2023-06-26T02:50:48;8.85;;;6.10;;
36233;SDS011;43467;50.890;5.982;2023-06-26T02:53:15;8.70;;;6.40;;
36233;SDS011;43467;50.890;5.982;2023-06-26T02:55:41;11.68;;;6.53;;
36233;SDS011;43467;50.890;5.982;2023-06-26T02:58:06;10.52;;;6.18;;
36233;SDS011;43467;50.890;5.982;2023-06-26T03:00:31;9.30;;;5.97;;
36233;SDS011;43467;50.890;5.982;2023-06-26T03:02:57;9.82;;;5.88;;
36233;SDS011;43467;50.890;5.982;2023-06-26T03:05:22;8.48;;;6.38;;
36233;SDS011;43467;50.890;5.982;2023-06-26T03:07:48;7.65;;;5.93;;
36233;SDS011;43467;50.890;5.982;2023-06-26T03:10:14;13.48;;;6.15;;
36233;SDS011;43467;50.890;5.982;2023-06-26T03:12:40;11.18;;;6.78;;
36233;SDS011;43467;50.890;5.982;2023-06-26T03:15:05;8.18;;;5.03;;
36233;SDS011;43467;50.890;5.982;2023-06-26T03:17:31;7.25;;;5.45;;
36233;SDS011;43467;50.890;5.982;2023-06-26T03:19:56;14.98;;;5.78;;
36233;SDS011;43467;50.890;5.982;2023-06-26T03:22:21;9.23;;;5.55;;
36233;SDS011;43467;50.890;5.982;2023-06-26T03:24:47;7.45;;;5.40;;
36233;SDS011;43467;50.890;5.982;2023-06-26T03:27:12;10.75;;;5.05;;
36233;SDS011;43467;50.890;5.982;2023-06-26T03:29:38;9.00;;;5.25;;
36233;SDS011;43467;50.890;5.982;2023-06-26T03:32:03;7.97;;;5.20;;
36233;SDS011;43467;50.890;5.982;2023-06-26T03:34:29;6.65;;;5.40;;
36233;SDS011;43467;50.890;5.982;2023-06-26T03:36:54;9.55;;;5.25;;
36233;SDS011;43467;50.890;5.982;2023-06-26T03:39:20;8.07;;;5.47;;
36233;SDS011;43467;50.890;5.982;2023-06-26T03:41:45;9.90;;;6.47;;
36233;SDS011;43467;50.890;5.982;2023-06-26T03:44:11;11.77;;;6.18;;
36233;SDS011;43467;50.890;5.982;2023-06-26T03:46:37;9.27;;;5.60;;
36233;SDS011;43467;50.890;5.982;2023-06-26T03:49:03;7.95;;;6.25;;
36233;SDS011;43467;50.890;5.982;2023-06-26T03:51:28;13.55;;;7.40;;
36233;SDS011;43467;50.890;5.982;2023-06-26T03:53:54;13.63;;;7.38;;
36233;SDS011;43467;50.890;5.982;2023-06-26T03:56:19;11.55;;;6.95;;
36233;SDS011;43467;50.890;5.982;2023-06-26T03:58:44;12.55;;;6.65;;
36233;SDS011;43467;50.890;5.982;2023-06-26T04:01:10;9.60;;;6.20;;
36233;SDS011;43467;50.890;5.982;2023-06-26T04:03:35;11.65;;;6.47;;
36233;SDS011;43467;50.890;5.982;2023-06-26T04:06:01;10.85;;;6.07;;
36233;SDS011;43467;50.890;5.982;2023-06-26T04:08:26;17.83;;;7.47;;
36233;SDS011;43467;50.890;5.982;2023-06-26T04:10:52;8.73;;;5.82;;
36233;SDS011;43467;50.890;5.982;2023-06-26T04:13:18;11.35;;;6.47;;
36233;SDS011;43467;50.890;5.982;2023-06-26T04:15:44;8.57;;;6.10;;
36233;SDS011;43467;50.890;5.982;2023-06-26T04:18:09;10.82;;;6.30;;
36233;SDS011;43467;50.890;5.982;2023-06-26T04:20:39;9.05;;;5.60;;
36233;SDS011;43467;50.890;5.982;2023-06-26T04:23:06;11.50;;;6.32;;
36233;SDS011;43467;50.890;5.982;2023-06-26T04:25:31;8.32;;;5.53;;
36233;SDS011;43467;50.890;5.982;2023-06-26T04:27:56;11.27;;;6.28;;
36233;SDS011;43467;50.890;5.982;2023-06-26T04:30:22;9.25;;;5.53;;
36233;SDS011;43467;50.890;5.982;2023-06-26T04:32:47;10.15;;;5.65;;
36233;SDS011;43467;50.890;5.982;2023-06-26T04:35:13;12.02;;;5.88;;
36233;SDS011;43467;50.890;5.982;2023-06-26T04:37:38;10.45;;;5.78;;
36233;SDS011;43467;50.890;5.982;2023-06-26T04:40:04;10.18;;;5.50;;
36233;SDS011;43467;50.890;5.982;2023-06-26T04:42:32;9.95;;;6.15;;
36233;SDS011;43467;50.890;5.982;2023-06-26T04:44:57;10.23;;;5.43;;
36233;SDS011;43467;50.890;5.982;2023-06-26T04:47:23;9.80;;;5.20;;
36233;SDS011;43467;50.890;5.982;2023-06-26T04:49:48;8.48;;;5.53;;
36233;SDS011;43467;50.890;5.982;2023-06-26T04:52:13;8.60;;;4.80;;
36233;SDS011;43467;50.890;5.982;2023-06-26T04:54:39;11.68;;;5.88;;
36233;SDS011;43467;50.890;5.982;2023-06-26T04:57:05;10.65;;;5.05;;
36233;SDS011;43467;50.890;5.982;2023-06-26T04:59:30;6.82;;;4.40;;
36233;SDS011;43467;50.890;5.982;2023-06-26T05:01:56;11.55;;;5.35;;
36233;SDS011;43467;50.890;5.982;2023-06-26T05:04:22;12.25;;;4.70;;
36233;SDS011;43467;50.890;5.982;2023-06-26T05:06:47;7.68;;;4.70;;
36233;SDS011;43467;50.890;5.982;2023-06-26T05:09:13;10.20;;;4.63;;
36233;SDS011;43467;50.890;5.982;2023-06-26T05:11:38;10.88;;;4.85;;
36233;SDS011;43467;50.890;5.982;2023-06-26T05:14:04;11.38;;;4.78;;
36233;SDS011;43467;50.890;5.982;2023-06-26T05:16:33;9.35;;;5.07;;
36233;SDS011;43467;50.890;5.982;2023-06-26T05:18:59;9.98;;;4.50;;
36233;SDS011;43467;50.890;5.982;2023-06-26T05:21:24;11.50;;;4.55;;
36233;SDS011;43467;50.890;5.982;2023-06-26T05:23:50;7.07;;;3.97;;
36233;SDS011;43467;50.890;5.982;2023-06-26T05:26:20;7.70;;;4.32;;
36233;SDS011;43467;50.890;5.982;2023-06-26T05:28:46;10.45;;;4.38;;
36233;SDS011;43467;50.890;5.982;2023-06-26T05:31:14;9.27;;;4.82;;
36233;SDS011;43467;50.890;5.982;2023-06-26T05:33:40;13.70;;;5.25;;
36233;SDS011;43467;50.890;5.982;2023-06-26T05:36:10;8.57;;;4.38;;
36233;SDS011;43467;50.890;5.982;2023-06-26T05:38:37;8.52;;;4.28;;
36233;SDS011;43467;50.890;5.982;2023-06-26T05:41:03;12.30;;;5.32;;
36233;SDS011;43467;50.890;5.982;2023-06-26T05:43:29;10.77;;;5.45;;
36233;SDS011;43467;50.890;5.982;2023-06-26T05:45:54;10.20;;;4.63;;
36233;SDS011;43467;50.890;5.982;2023-06-26T05:48:19;12.82;;;4.95;;
36233;SDS011;43467;50.890;5.982;2023-06-26T05:50:45;10.55;;;4.85;;
36233;SDS011;43467;50.890;5.982;2023-06-26T05:53:10;9.23;;;4.57;;
36233;SDS011;43467;50.890;5.982;2023-06-26T05:55:37;11.32;;;5.15;;
36233;SDS011;43467;50.890;5.982;2023-06-26T05:58:02;9.55;;;4.93;;
36233;SDS011;43467;50.890;5.982;2023-06-26T06:00:28;12.88;;;5.35;;
36233;SDS011;43467;50.890;5.982;2023-06-26T06:02:54;10.95;;;5.20;;
36233;SDS011;43467;50.890;5.982;2023-06-26T06:05:20;14.93;;;6.30;;
36233;SDS011;43467;50.890;5.982;2023-06-26T06:07:46;16.27;;;6.15;;
36233;SDS011;43467;50.890;5.982;2023-06-26T06:10:12;13.52;;;5.50;;
36233;SDS011;43467;50.890;5.982;2023-06-26T06:12:38;12.32;;;5.68;;
36233;SDS011;43467;50.890;5.982;2023-06-26T06:15:03;11.45;;;5.45;;
36233;SDS011;43467;50.890;5.982;2023-06-26T06:17:30;12.68;;;6.28;;
36233;SDS011;43467;50.890;5.982;2023-06-26T06:19:55;12.45;;;5.57;;
36233;SDS011;43467;50.890;5.982;2023-06-26T06:22:21;16.00;;;6.15;;
36233;SDS011;43467;50.890;5.982;2023-06-26T06:24:46;16.35;;;6.32;;
36233;SDS011;43467;50.890;5.982;2023-06-26T06:27:13;8.75;;;4.72;;
36233;SDS011;43467;50.890;5.982;2023-06-26T06:29:39;10.10;;;5.40;;
36233;SDS011;43467;50.890;5.982;2023-06-26T06:32:05;14.88;;;5.55;;
36233;SDS011;43467;50.890;5.982;2023-06-26T06:34:31;10.55;;;5.35;;
36233;SDS011;43467;50.890;5.982;2023-06-26T06:36:56;13.80;;;4.95;;
36233;SDS011;43467;50.890;5.982;2023-06-26T06:39:22;16.38;;;5.93;;
36233;SDS011;43467;50.890;5.982;2023-06-26T06:41:47;11.57;;;5.43;;
36233;SDS011;43467;50.890;5.982;2023-06-26T06:44:13;13.02;;;5.20;;
36233;SDS011;43467;50.890;5.982;2023-06-26T06:46:38;11.45;;;5.38;;
36233;SDS011;43467;50.890;5.982;2023-06-26T06:49:03;16.75;;;6.15;;
36233;SDS011;43467;50.890;5.982;2023-06-26T06:51:29;16.77;;;5.30;;
36233;SDS011;43467;50.890;5.982;2023-06-26T06:53:55;10.50;;;4.80;;
36233;SDS011;43467;50.890;5.982;2023-06-26T06:56:20;14.10;;;5.68;;
36233;SDS011;43467;50.890;5.982;2023-06-26T06:58:46;11.15;;;5.18;;
36233;SDS011;43467;50.890;5.982;2023-06-26T07:01:12;13.93;;;5.82;;
36233;SDS011;43467;50.890;5.982;2023-06-26T07:03:38;9.40;;;4.75;;
36233;SDS011;43467;50.890;5.982;2023-06-26T07:06:04;16.75;;;5.07;;
36233;SDS011;43467;50.890;5.982;2023-06-26T07:08:29;14.00;;;5.50;;
36233;SDS011;43467;50.890;5.982;2023-06-26T07:10:55;18.65;;;5.30;;
36233;SDS011;43467;50.890;5.982;2023-06-26T07:13:21;9.70;;;5.05;;
36233;SDS011;43467;50.890;5.982;2023-06-26T07:15:47;10.82;;;4.78;;
36233;SDS011;43467;50.890;5.982;2023-06-26T07:18:13;11.27;;;5.60;;
36233;SDS011;43467;50.890;5.982;2023-06-26T07:20:38;13.63;;;5.60;;
36233;SDS011;43467;50.890;5.982;2023-06-26T07:23:04;14.15;;;5.65;;
36233;SDS011;43467;50.890;5.982;2023-06-26T07:25:29;13.40;;;4.97;;
36233;SDS011;43467;50.890;5.982;2023-06-26T07:27:54;10.98;;;5.00;;
36233;SDS011;43467;50.890;5.982;2023-06-26T07:30:20;12.98;;;4.88;;
36233;SDS011;43467;50.890;5.982;2023-06-26T07:32:45;11.45;;;4.90;;
36233;SDS011;43467;50.890;5.982;2023-06-26T07:35:11;10.15;;;4.53;;
36233;SDS011;43467;50.890;5.982;2023-06-26T07:37:36;10.90;;;4.97;;
36233;SDS011;43467;50.890;5.982;2023-06-26T07:40:02;11.70;;;4.10;;
36233;SDS011;43467;50.890;5.982;2023-06-26T07:42:27;13.82;;;5.00;;
36233;SDS011;43467;50.890;5.982;2023-06-26T07:44:53;20.15;;;5.57;;
36233;SDS011;43467;50.890;5.982;2023-06-26T07:47:18;9.85;;;4.70;;
36233;SDS011;43467;50.890;5.982;2023-06-26T07:49:44;12.20;;;4.55;;
36233;SDS011;43467;50.890;5.982;2023-06-26T07:52:09;11.90;;;5.05;;
36233;SDS011;43467;50.890;5.982;2023-06-26T07:54:37;12.55;;;4.90;;
36233;SDS011;43467;50.890;5.982;2023-06-26T07:57:03;17.83;;;4.80;;
36233;SDS011;43467;50.890;5.982;2023-06-26T07:59:39;11.25;;;4.50;;
36233;SDS011;43467;50.890;5.982;2023-06-26T08:02:06;9.52;;;4.10;;
36233;SDS011;43467;50.890;5.982;2023-06-26T08:04:32;14.65;;;3.90;;
36233;SDS011;43467;50.890;5.982;2023-06-26T08:06:59;14.57;;;4.57;;
36233;SDS011;43467;50.890;5.982;2023-06-26T08:09:25;10.68;;;4.40;;
36233;SDS011;43467;50.890;5.982;2023-06-26T08:11:53;11.80;;;4.32;;
36233;SDS011;43467;50.890;5.982;2023-06-26T08:14:19;14.75;;;4.45;;
36233;SDS011;43467;50.890;5.982;2023-06-26T08:16:45;13.85;;;4.00;;
36233;SDS011;43467;50.890;5.982;2023-06-26T08:19:12;12.80;;;3.83;;
36233;SDS011;43467;50.890;5.982;2023-06-26T08:21:39;15.80;;;4.47;;
36233;SDS011;43467;50.890;5.982;2023-06-26T08:24:08;13.65;;;4.10;;
36233;SDS011;43467;50.890;5.982;2023-06-26T08:26:34;9.35;;;3.40;;
36233;SDS011;43467;50.890;5.982;2023-06-26T08:29:00;11.27;;;3.92;;
36233;SDS011;43467;50.890;5.982;2023-06-26T08:31:26;13.10;;;4.03;;
36233;SDS011;43467;50.890;5.982;2023-06-26T08:33:51;10.30;;;3.95;;
36233;SDS011;43467;50.890;5.982;2023-06-26T08:36:17;10.38;;;4.10;;
36233;SDS011;43467;50.890;5.982;2023-06-26T08:38:42;7.55;;;3.30;;
36233;SDS011;43467;50.890;5.982;2023-06-26T08:41:08;13.65;;;4.22;;
36233;SDS011;43467;50.890;5.982;2023-06-26T08:43:34;13.48;;;3.60;;
36233;SDS011;43467;50.890;5.982;2023-06-26T08:46:00;14.30;;;4.10;;
36233;SDS011;43467;50.890;5.982;2023-06-26T08:48:26;10.52;;;3.53;;
36233;SDS011;43467;50.890;5.982;2023-06-26T08:50:54;12.93;;;3.42;;
36233;SDS011;43467;50.890;5.982;2023-06-26T08:56:06;8.70;;;3.50;;
36233;SDS011;43467;50.890;5.982;2023-06-26T08:58:33;11.27;;;3.25;;
36233;SDS011;43467;50.890;5.982;2023-06-26T09:01:01;11.18;;;3.85;;
36233;SDS011;43467;50.890;5.982;2023-06-26T09:03:27;9.60;;;3.38;;
36233;SDS011;43467;50.890;5.982;2023-06-26T09:05:53;8.82;;;3.33;;
36233;SDS011;43467;50.890;5.982;2023-06-26T09:08:19;9.30;;;3.17;;
36233;SDS011;43467;50.890;5.982;2023-06-26T09:10:44;7.18;;;3.25;;
36233;SDS011;43467;50.890;5.982;2023-06-26T09:13:09;12.27;;;3.38;;
36233;SDS011;43467;50.890;5.982;2023-06-26T09:15:38;12.75;;;3.35;;
36233;SDS011;43467;50.890;5.982;2023-06-26T09:18:07;8.02;;;2.60;;
36233;SDS011;43467;50.890;5.982;2023-06-26T09:20:33;13.68;;;3.50;;
36233;SDS011;43467;50.890;5.982;2023-06-26T09:22:59;15.70;;;3.30;;
36233;SDS011;43467;50.890;5.982;2023-06-26T09:25:25;8.73;;;3.75;;
36233;SDS011;43467;50.890;5.982;2023-06-26T09:27:53;14.85;;;3.40;;
36233;SDS011;43467;50.890;5.982;2023-06-26T09:30:18;11.88;;;3.55;;
36233;SDS011;43467;50.890;5.982;2023-06-26T09:32:44;12.45;;;3.53;;
36233;SDS011;43467;50.890;5.982;2023-06-26T09:35:10;8.18;;;3.50;;
36233;SDS011;43467;50.890;5.982;2023-06-26T09:37:36;12.63;;;3.35;;
36233;SDS011;43467;50.890;5.982;2023-06-26T09:40:02;9.73;;;3.38;;
36233;SDS011;43467;50.890;5.982;2023-06-26T09:42:28;10.40;;;3.10;;
36233;SDS011;43467;50.890;5.982;2023-06-26T09:44:54;8.98;;;2.95;;
36233;SDS011;43467;50.890;5.982;2023-06-26T09:47:20;7.75;;;3.28;;
36233;SDS011;43467;50.890;5.982;2023-06-26T09:49:46;12.65;;;3.50;;
36233;SDS011;43467;50.890;5.982;2023-06-26T09:52:13;11.45;;;3.03;;
36233;SDS011;43467;50.890;5.982;2023-06-26T09:54:40;9.00;;;2.67;;
36233;SDS011;43467;50.890;5.982;2023-06-26T09:57:09;8.68;;;3.33;;
36233;SDS011;43467;50.890;5.982;2023-06-26T09:59:35;9.68;;;2.92;;
36233;SDS011;43467;50.890;5.982;2023-06-26T10:02:01;6.05;;;2.83;;
36233;SDS011;43467;50.890;5.982;2023-06-26T10:04:27;10.60;;;2.58;;
36233;SDS011;43467;50.890;5.982;2023-06-26T10:06:54;9.10;;;2.67;;
36233;SDS011;43467;50.890;5.982;2023-06-26T10:09:22;8.85;;;3.13;;
36233;SDS011;43467;50.890;5.982;2023-06-26T10:14:20;12.02;;;3.00;;
36233;SDS011;43467;50.890;5.982;2023-06-26T10:16:49;8.48;;;2.42;;
36233;SDS011;43467;50.890;5.982;2023-06-26T10:19:16;10.38;;;3.20;;
36233;SDS011;43467;50.890;5.982;2023-06-26T10:21:49;10.50;;;2.95;;
36233;SDS011;43467;50.890;5.982;2023-06-26T10:24:18;8.75;;;2.97;;
36233;SDS011;43467;50.890;5.982;2023-06-26T10:26:45;7.80;;;2.65;;
36233;SDS011;43467;50.890;5.982;2023-06-26T10:29:14;9.30;;;2.85;;
36233;SDS011;43467;50.890;5.982;2023-06-26T10:31:42;7.63;;;2.60;;
36233;SDS011;43467;50.890;5.982;2023-06-26T10:34:11;14.00;;;2.85;;
36233;SDS011;43467;50.890;5.982;2023-06-26T10:36:37;13.82;;;2.60;;
36233;SDS011;43467;50.890;5.982;2023-06-26T10:39:04;5.93;;;2.10;;
36233;SDS011;43467;50.890;5.982;2023-06-26T10:41:37;6.78;;;2.50;;
36233;SDS011;43467;50.890;5.982;2023-06-26T10:44:08;5.78;;;2.40;;
36233;SDS011;43467;50.890;5.982;2023-06-26T10:49:15;9.82;;;3.17;;
36233;SDS011;43467;50.890;5.982;2023-06-26T10:51:48;7.22;;;2.90;;
36233;SDS011;43467;50.890;5.982;2023-06-26T10:54:15;6.35;;;2.30;;
36233;SDS011;43467;50.890;5.982;2023-06-26T10:59:23;7.10;;;2.75;;
36233;SDS011;43467;50.890;5.982;2023-06-26T11:02:00;7.85;;;2.40;;
36233;SDS011;43467;50.890;5.982;2023-06-26T11:09:55;8.73;;;2.13;;
36233;SDS011;43467;50.890;5.982;2023-06-26T11:15:07;6.32;;;2.22;;
36233;SDS011;43467;50.890;5.982;2023-06-26T11:17:37;6.28;;;2.20;;
36233;SDS011;43467;50.890;5.982;2023-06-26T11:20:07;6.15;;;2.30;;
36233;SDS011;43467;50.890;5.982;2023-06-26T11:22:34;6.78;;;2.13;;
36233;SDS011;43467;50.890;5.982;2023-06-26T11:25:01;5.65;;;2.20;;
36233;SDS011;43467;50.890;5.982;2023-06-26T11:27:43;8.70;;;2.30;;
36233;SDS011;43467;50.890;5.982;2023-06-26T11:30:10;7.20;;;2.47;;
36233;SDS011;43467;50.890;5.982;2023-06-26T11:32:37;6.03;;;2.47;;
36233;SDS011;43467;50.890;5.982;2023-06-26T11:35:03;6.65;;;2.00;;
36233;SDS011;43467;50.890;5.982;2023-06-26T11:37:30;7.55;;;1.80;;
36233;SDS011;43467;50.890;5.982;2023-06-26T11:39:56;6.60;;;2.53;;
36233;SDS011;43467;50.890;5.982;2023-06-26T11:42:21;6.82;;;2.35;;
36233;SDS011;43467;50.890;5.982;2023-06-26T11:44:47;7.53;;;1.95;;
36233;SDS011;43467;50.890;5.982;2023-06-26T11:47:13;12.13;;;2.63;;
36233;SDS011;43467;50.890;5.982;2023-06-26T11:49:41;7.28;;;1.95;;
36233;SDS011;43467;50.890;5.982;2023-06-26T11:52:08;5.88;;;2.20;;
36233;SDS011;43467;50.890;5.982;2023-06-26T11:54:33;8.75;;;1.83;;
36233;SDS011;43467;50.890;5.982;2023-06-26T11:56:59;5.68;;;1.83;;
36233;SDS011;43467;50.890;5.982;2023-06-26T11:59:32;5.95;;;1.77;;
36233;SDS011;43467;50.890;5.982;2023-06-26T12:02:08;4.80;;;2.00;;
36233;SDS011;43467;50.890;5.982;2023-06-26T12:04:35;6.15;;;1.88;;
36233;SDS011;43467;50.890;5.982;2023-06-26T12:07:04;7.72;;;1.67;;
36233;SDS011;43467;50.890;5.982;2023-06-26T12:09:33;7.30;;;1.88;;
36233;SDS011;43467;50.890;5.982;2023-06-26T12:11:59;5.18;;;1.83;;
36233;SDS011;43467;50.890;5.982;2023-06-26T12:14:26;4.28;;;1.70;;
36233;SDS011;43467;50.890;5.982;2023-06-26T12:16:55;4.47;;;1.73;;
36233;SDS011;43467;50.890;5.982;2023-06-26T12:19:24;5.70;;;1.48;;
36233;SDS011;43467;50.890;5.982;2023-06-26T12:21:51;3.85;;;1.70;;
36233;SDS011;43467;50.890;5.982;2023-06-26T12:24:20;3.90;;;1.52;;
36233;SDS011;43467;50.890;5.982;2023-06-26T12:26:51;8.63;;;1.98;;
36233;SDS011;43467;50.890;5.982;2023-06-26T12:29:19;8.63;;;1.77;;
36233;SDS011;43467;50.890;5.982;2023-06-26T12:31:49;3.88;;;1.48;;
36233;SDS011;43467;50.890;5.982;2023-06-26T12:34:18;6.07;;;1.88;;
36233;SDS011;43467;50.890;5.982;2023-06-26T12:36:46;6.93;;;1.63;;
36233;SDS011;43467;50.890;5.982;2023-06-26T12:39:16;5.75;;;1.58;;
36233;SDS011;43467;50.890;5.982;2023-06-26T12:41:51;5.38;;;1.80;;
36233;SDS011;43467;50.890;5.982;2023-06-26T12:44:28;3.90;;;1.52;;
36233;SDS011;43467;50.890;5.982;2023-06-26T12:46:58;3.28;;;1.52;;
36233;SDS011;43467;50.890;5.982;2023-06-26T12:49:34;4.53;;;1.75;;
36233;SDS011;43467;50.890;5.982;2023-06-26T12:52:07;6.57;;;1.80;;
36233;SDS011;43467;50.890;5.982;2023-06-26T12:54:37;7.35;;;1.55;;
36233;SDS011;43467;50.890;5.982;2023-06-26T12:57:07;4.07;;;1.70;;
36233;SDS011;43467;50.890;5.982;2023-06-26T12:59:34;5.85;;;1.73;;
36233;SDS011;43467;50.890;5.982;2023-06-26T13:02:01;6.78;;;2.13;;
36233;SDS011;43467;50.890;5.982;2023-06-26T13:04:26;8.05;;;1.70;;
36233;SDS011;43467;50.890;5.982;2023-06-26T13:06:52;5.93;;;1.92;;
36233;SDS011;43467;50.890;5.982;2023-06-26T13:09:20;4.50;;;1.52;;
36233;SDS011;43467;50.890;5.982;2023-06-26T13:11:49;5.65;;;2.10;;
36233;SDS011;43467;50.890;5.982;2023-06-26T13:14:15;4.00;;;1.77;;
36233;SDS011;43467;50.890;5.982;2023-06-26T13:16:41;3.45;;;1.52;;
36233;SDS011;43467;50.890;5.982;2023-06-26T13:19:06;5.43;;;1.95;;
36233;SDS011;43467;50.890;5.982;2023-06-26T13:21:32;4.78;;;1.98;;
36233;SDS011;43467;50.890;5.982;2023-06-26T13:23:58;5.00;;;2.25;;
36233;SDS011;43467;50.890;5.982;2023-06-26T13:26:24;5.22;;;2.17;;
36233;SDS011;43467;50.890;5.982;2023-06-26T13:28:51;4.72;;;1.92;;
36233;SDS011;43467;50.890;5.982;2023-06-26T13:31:17;3.60;;;1.85;;
36233;SDS011;43467;50.890;5.982;2023-06-26T13:33:43;6.05;;;2.22;;
36233;SDS011;43467;50.890;5.982;2023-06-26T13:36:09;7.13;;;2.10;;
36233;SDS011;43467;50.890;5.982;2023-06-26T13:38:35;6.05;;;2.20;;
36233;SDS011;43467;50.890;5.982;2023-06-26T13:41:00;9.85;;;2.05;;
36233;SDS011;43467;50.890;5.982;2023-06-26T13:43:27;7.03;;;2.00;;
36233;SDS011;43467;50.890;5.982;2023-06-26T13:45:53;6.00;;;1.98;;
36233;SDS011;43467;50.890;5.982;2023-06-26T13:48:19;10.50;;;2.47;;
36233;SDS011;43467;50.890;5.982;2023-06-26T13:50:45;4.15;;;1.88;;
36233;SDS011;43467;50.890;5.982;2023-06-26T13:53:10;5.10;;;2.28;;
36233;SDS011;43467;50.890;5.982;2023-06-26T13:55:36;6.72;;;2.30;;
36233;SDS011;43467;50.890;5.982;2023-06-26T13:58:03;11.13;;;2.42;;
36233;SDS011;43467;50.890;5.982;2023-06-26T14:00:30;6.70;;;2.00;;
36233;SDS011;43467;50.890;5.982;2023-06-26T14:02:55;3.08;;;1.88;;
36233;SDS011;43467;50.890;5.982;2023-06-26T14:05:21;9.10;;;2.30;;
36233;SDS011;43467;50.890;5.982;2023-06-26T14:07:47;7.93;;;2.22;;
36233;SDS011;43467;50.890;5.982;2023-06-26T14:10:13;7.22;;;2.30;;
36233;SDS011;43467;50.890;5.982;2023-06-26T14:12:40;5.95;;;1.80;;
36233;SDS011;43467;50.890;5.982;2023-06-26T14:15:06;6.40;;;1.77;;
36233;SDS011;43467;50.890;5.982;2023-06-26T14:17:32;6.18;;;1.67;;
36233;SDS011;43467;50.890;5.982;2023-06-26T14:19:57;5.35;;;2.20;;
36233;SDS011;43467;50.890;5.982;2023-06-26T14:22:23;4.95;;;1.73;;
36233;SDS011;43467;50.890;5.982;2023-06-26T14:24:48;2.47;;;1.40;;
36233;SDS011;43467;50.890;5.982;2023-06-26T14:27:14;5.07;;;2.13;;
36233;SDS011;43467;50.890;5.982;2023-06-26T14:29:39;7.00;;;1.60;;
36233;SDS011;43467;50.890;5.982;2023-06-26T14:32:05;3.58;;;1.80;;
36233;SDS011;43467;50.890;5.982;2023-06-26T14:34:31;7.10;;;2.03;;
36233;SDS011;43467;50.890;5.982;2023-06-26T14:36:57;4.47;;;1.58;;
36233;SDS011;43467;50.890;5.982;2023-06-26T14:39:22;11.98;;;2.33;;
36233;SDS011;43467;50.890;5.982;2023-06-26T14:41:48;4.40;;;1.90;;
36233;SDS011;43467;50.890;5.982;2023-06-26T14:44:16;4.15;;;1.50;;
36233;SDS011;43467;50.890;5.982;2023-06-26T14:46:42;6.53;;;1.90;;
36233;SDS011;43467;50.890;5.982;2023-06-26T14:49:08;5.78;;;1.90;;
36233;SDS011;43467;50.890;5.982;2023-06-26T14:51:33;4.60;;;1.92;;
36233;SDS011;43467;50.890;5.982;2023-06-26T14:54:00;4.00;;;1.83;;
36233;SDS011;43467;50.890;5.982;2023-06-26T14:56:26;8.45;;;1.98;;
36233;SDS011;43467;50.890;5.982;2023-06-26T14:58:51;4.20;;;1.60;;
36233;SDS011;43467;50.890;5.982;2023-06-26T15:01:18;6.15;;;1.90;;
36233;SDS011;43467;50.890;5.982;2023-06-26T15:03:44;3.83;;;1.85;;
36233;SDS011;43467;50.890;5.982;2023-06-26T15:06:11;3.65;;;1.65;;
36233;SDS011;43467;50.890;5.982;2023-06-26T15:08:36;5.22;;;1.65;;